sensor_id;sensor_type;location;lat;lon;timestamp;P1;durP1;ratioP1;P2;durP2;ratioP2
51214;SDS011;63849;47.546;19.254;2022-12-07T00:01:26;99.72;;;72.15;;
51214;SDS011;63849;47.546;19.254;2022-12-07T00:03:57;65.80;;;48.72;;
51214;SDS011;63849;47.546;19.254;2022-12-07T00:06:40;33.90;;;27.90;;
51214;SDS011;63849;47.546;19.254;2022-12-07T00:09:09;34.22;;;26.10;;
51214;SDS011;63849;47.546;19.254;2022-12-07T00:11:37;100.05;;;52.53;;
51214;SDS011;63849;47.546;19.254;2022-12-07T00:14:08;154.10;;;77.15;;
51214;SDS011;63849;47.546;19.254;2022-12-07T00:16:36;134.15;;;69.70;;
51214;SDS011;63849;47.546;19.254;2022-12-07T00:19:03;128.43;;;64.70;;
51214;SDS011;63849;47.546;19.254;2022-12-07T00:21:30;94.45;;;50.58;;
51214;SDS011;63849;47.546;19.254;2022-12-07T00:23:57;93.90;;;49.80;;
51214;SDS011;63849;47.546;19.254;2022-12-07T00:26:27;67.47;;;39.72;;
51214;SDS011;63849;47.546;19.254;2022-12-07T00:29:09;61.58;;;35.70;;
51214;SDS011;63849;47.546;19.254;2022-12-07T00:31:39;50.58;;;30.35;;
51214;SDS011;63849;47.546;19.254;2022-12-07T00:34:06;43.00;;;26.65;;
51214;SDS011;63849;47.546;19.254;2022-12-07T00:36:32;36.13;;;24.17;;
51214;SDS011;63849;47.546;19.254;2022-12-07T00:38:58;33.90;;;21.98;;
51214;SDS011;63849;47.546;19.254;2022-12-07T00:41:25;26.33;;;18.98;;
51214;SDS011;63849;47.546;19.254;2022-12-07T00:43:52;24.70;;;18.65;;
51214;SDS011;63849;47.546;19.254;2022-12-07T00:46:18;25.85;;;19.05;;
51214;SDS011;63849;47.546;19.254;2022-12-07T00:48:46;27.77;;;21.13;;
51214;SDS011;63849;47.546;19.254;2022-12-07T00:51:13;29.75;;;22.10;;
51214;SDS011;63849;47.546;19.254;2022-12-07T00:53:40;28.13;;;20.48;;
51214;SDS011;63849;47.546;19.254;2022-12-07T00:56:11;31.95;;;22.73;;
51214;SDS011;63849;47.546;19.254;2022-12-07T00:58:38;32.97;;;24.45;;
51214;SDS011;63849;47.546;19.254;2022-12-07T01:01:04;31.48;;;23.13;;
51214;SDS011;63849;47.546;19.254;2022-12-07T01:03:32;30.90;;;23.58;;
51214;SDS011;63849;47.546;19.254;2022-12-07T01:05:58;37.65;;;25.83;;
51214;SDS011;63849;47.546;19.254;2022-12-07T01:08:25;34.97;;;26.27;;
51214;SDS011;63849;47.546;19.254;2022-12-07T01:10:59;33.65;;;24.88;;
51214;SDS011;63849;47.546;19.254;2022-12-07T01:13:27;30.70;;;24.25;;
51214;SDS011;63849;47.546;19.254;2022-12-07T01:15:55;31.25;;;23.80;;
51214;SDS011;63849;47.546;19.254;2022-12-07T01:18:25;31.95;;;23.83;;
51214;SDS011;63849;47.546;19.254;2022-12-07T01:21:01;30.40;;;22.25;;
51214;SDS011;63849;47.546;19.254;2022-12-07T01:23:32;32.58;;;22.48;;
51214;SDS011;63849;47.546;19.254;2022-12-07T01:26:00;29.80;;;23.10;;
51214;SDS011;63849;47.546;19.254;2022-12-07T01:28:28;30.30;;;22.75;;
51214;SDS011;63849;47.546;19.254;2022-12-07T01:30:58;32.50;;;23.75;;
51214;SDS011;63849;47.546;19.254;2022-12-07T01:33:26;52.25;;;31.25;;
51214;SDS011;63849;47.546;19.254;2022-12-07T01:38:41;34.95;;;24.63;;
51214;SDS011;63849;47.546;19.254;2022-12-07T01:41:08;37.58;;;25.17;;
51214;SDS011;63849;47.546;19.254;2022-12-07T01:43:34;33.05;;;24.33;;
51214;SDS011;63849;47.546;19.254;2022-12-07T01:48:47;35.28;;;24.77;;
51214;SDS011;63849;47.546;19.254;2022-12-07T01:51:13;31.27;;;23.13;;
51214;SDS011;63849;47.546;19.254;2022-12-07T01:53:42;30.25;;;23.00;;
51214;SDS011;63849;47.546;19.254;2022-12-07T01:56:11;32.33;;;22.58;;
51214;SDS011;63849;47.546;19.254;2022-12-07T01:58:43;27.00;;;21.58;;
51214;SDS011;63849;47.546;19.254;2022-12-07T02:01:10;30.10;;;23.00;;
51214;SDS011;63849;47.546;19.254;2022-12-07T02:03:37;31.70;;;23.75;;
51214;SDS011;63849;47.546;19.254;2022-12-07T02:06:06;34.40;;;24.73;;
51214;SDS011;63849;47.546;19.254;2022-12-07T02:08:33;33.05;;;23.75;;
51214;SDS011;63849;47.546;19.254;2022-12-07T02:11:00;31.88;;;22.92;;
51214;SDS011;63849;47.546;19.254;2022-12-07T02:13:28;30.42;;;23.30;;
51214;SDS011;63849;47.546;19.254;2022-12-07T02:27:46;31.17;;;24.38;;
51214;SDS011;63849;47.546;19.254;2022-12-07T02:30:17;29.20;;;23.98;;
51214;SDS011;63849;47.546;19.254;2022-12-07T02:38:20;31.48;;;24.05;;
51214;SDS011;63849;47.546;19.254;2022-12-07T02:41:06;33.28;;;25.27;;
51214;SDS011;63849;47.546;19.254;2022-12-07T02:43:35;35.05;;;26.27;;
51214;SDS011;63849;47.546;19.254;2022-12-07T02:46:08;37.97;;;27.42;;
51214;SDS011;63849;47.546;19.254;2022-12-07T02:48:37;31.77;;;25.20;;
51214;SDS011;63849;47.546;19.254;2022-12-07T02:51:05;34.67;;;26.67;;
51214;SDS011;63849;47.546;19.254;2022-12-07T02:53:34;35.53;;;24.88;;
51214;SDS011;63849;47.546;19.254;2022-12-07T03:18:21;32.42;;;24.13;;
51214;SDS011;63849;47.546;19.254;2022-12-07T03:20:50;29.33;;;22.88;;
51214;SDS011;63849;47.546;19.254;2022-12-07T03:23:20;31.00;;;24.08;;
51214;SDS011;63849;47.546;19.254;2022-12-07T03:25:52;30.63;;;23.17;;
51214;SDS011;63849;47.546;19.254;2022-12-07T03:28:22;34.72;;;23.15;;
51214;SDS011;63849;47.546;19.254;2022-12-07T03:30:56;36.63;;;26.30;;
51214;SDS011;63849;47.546;19.254;2022-12-07T03:33:28;37.47;;;25.90;;
51214;SDS011;63849;47.546;19.254;2022-12-07T03:36:33;34.35;;;22.90;;
51214;SDS011;63849;47.546;19.254;2022-12-07T03:39:26;31.00;;;23.17;;
51214;SDS011;63849;47.546;19.254;2022-12-07T03:42:03;33.08;;;23.35;;
51214;SDS011;63849;47.546;19.254;2022-12-07T03:44:32;36.38;;;25.10;;
51214;SDS011;63849;47.546;19.254;2022-12-07T03:49:50;32.03;;;25.63;;
51214;SDS011;63849;47.546;19.254;2022-12-07T03:52:33;34.75;;;24.15;;
51214;SDS011;63849;47.546;19.254;2022-12-07T03:55:07;34.78;;;25.05;;
51214;SDS011;63849;47.546;19.254;2022-12-07T03:57:37;35.92;;;24.77;;
51214;SDS011;63849;47.546;19.254;2022-12-07T04:00:07;33.55;;;24.52;;
51214;SDS011;63849;47.546;19.254;2022-12-07T04:02:34;36.40;;;25.52;;
51214;SDS011;63849;47.546;19.254;2022-12-07T04:05:01;34.78;;;25.35;;
51214;SDS011;63849;47.546;19.254;2022-12-07T04:07:27;38.63;;;27.05;;
51214;SDS011;63849;47.546;19.254;2022-12-07T04:09:53;32.03;;;24.25;;
51214;SDS011;63849;47.546;19.254;2022-12-07T04:12:20;33.70;;;25.10;;
51214;SDS011;63849;47.546;19.254;2022-12-07T04:14:47;30.50;;;23.55;;
51214;SDS011;63849;47.546;19.254;2022-12-07T04:17:12;32.58;;;23.10;;
51214;SDS011;63849;47.546;19.254;2022-12-07T04:19:38;31.42;;;22.85;;
51214;SDS011;63849;47.546;19.254;2022-12-07T04:22:04;26.65;;;20.48;;
51214;SDS011;63849;47.546;19.254;2022-12-07T04:24:30;25.88;;;19.95;;
51214;SDS011;63849;47.546;19.254;2022-12-07T04:26:56;24.25;;;19.67;;
51214;SDS011;63849;47.546;19.254;2022-12-07T04:29:22;24.88;;;20.23;;
51214;SDS011;63849;47.546;19.254;2022-12-07T04:31:48;24.23;;;19.80;;
51214;SDS011;63849;47.546;19.254;2022-12-07T04:34:14;26.75;;;20.50;;
51214;SDS011;63849;47.546;19.254;2022-12-07T04:36:41;27.92;;;20.52;;
51214;SDS011;63849;47.546;19.254;2022-12-07T04:39:07;29.00;;;20.65;;
51214;SDS011;63849;47.546;19.254;2022-12-07T04:41:44;29.30;;;22.38;;
51214;SDS011;63849;47.546;19.254;2022-12-07T04:44:10;28.45;;;21.17;;
51214;SDS011;63849;47.546;19.254;2022-12-07T04:46:39;29.30;;;20.70;;
51214;SDS011;63849;47.546;19.254;2022-12-07T04:49:05;27.55;;;20.92;;
51214;SDS011;63849;47.546;19.254;2022-12-07T04:51:31;25.00;;;19.60;;
51214;SDS011;63849;47.546;19.254;2022-12-07T04:53:57;20.55;;;17.17;;
51214;SDS011;63849;47.546;19.254;2022-12-07T04:56:23;17.80;;;14.48;;
51214;SDS011;63849;47.546;19.254;2022-12-07T04:58:51;19.50;;;15.70;;
51214;SDS011;63849;47.546;19.254;2022-12-07T05:01:18;15.77;;;13.85;;
51214;SDS011;63849;47.546;19.254;2022-12-07T05:03:44;15.93;;;13.45;;
51214;SDS011;63849;47.546;19.254;2022-12-07T05:06:10;16.98;;;13.90;;
51214;SDS011;63849;47.546;19.254;2022-12-07T05:08:36;17.80;;;14.25;;
51214;SDS011;63849;47.546;19.254;2022-12-07T05:11:03;16.17;;;13.85;;
51214;SDS011;63849;47.546;19.254;2022-12-07T05:13:30;16.15;;;12.95;;
51214;SDS011;63849;47.546;19.254;2022-12-07T05:15:56;19.60;;;15.45;;
51214;SDS011;63849;47.546;19.254;2022-12-07T05:18:22;21.00;;;16.70;;
51214;SDS011;63849;47.546;19.254;2022-12-07T05:20:48;19.05;;;15.68;;
51214;SDS011;63849;47.546;19.254;2022-12-07T05:23:14;18.73;;;13.43;;
51214;SDS011;63849;47.546;19.254;2022-12-07T05:25:40;14.50;;;12.75;;
51214;SDS011;63849;47.546;19.254;2022-12-07T05:28:06;12.65;;;11.13;;
51214;SDS011;63849;47.546;19.254;2022-12-07T05:30:31;11.40;;;10.18;;
51214;SDS011;63849;47.546;19.254;2022-12-07T05:32:57;12.60;;;10.40;;
51214;SDS011;63849;47.546;19.254;2022-12-07T05:35:23;12.90;;;10.10;;
51214;SDS011;63849;47.546;19.254;2022-12-07T05:37:49;13.43;;;10.50;;
51214;SDS011;63849;47.546;19.254;2022-12-07T05:40:15;12.02;;;10.38;;
51214;SDS011;63849;47.546;19.254;2022-12-07T05:42:42;12.32;;;9.90;;
51214;SDS011;63849;47.546;19.254;2022-12-07T05:45:08;13.43;;;10.82;;
51214;SDS011;63849;47.546;19.254;2022-12-07T05:47:34;13.38;;;10.63;;
51214;SDS011;63849;47.546;19.254;2022-12-07T05:50:00;11.90;;;9.40;;
51214;SDS011;63849;47.546;19.254;2022-12-07T05:52:27;14.10;;;10.57;;
51214;SDS011;63849;47.546;19.254;2022-12-07T05:54:52;19.13;;;13.57;;
51214;SDS011;63849;47.546;19.254;2022-12-07T05:57:18;29.48;;;20.27;;
51214;SDS011;63849;47.546;19.254;2022-12-07T05:59:44;25.25;;;18.60;;
51214;SDS011;63849;47.546;19.254;2022-12-07T06:02:11;25.00;;;19.80;;
51214;SDS011;63849;47.546;19.254;2022-12-07T06:04:39;24.45;;;19.92;;
51214;SDS011;63849;47.546;19.254;2022-12-07T06:07:07;22.23;;;17.63;;
51214;SDS011;63849;47.546;19.254;2022-12-07T06:09:33;22.08;;;16.85;;
51214;SDS011;63849;47.546;19.254;2022-12-07T06:12:00;21.17;;;16.67;;
51214;SDS011;63849;47.546;19.254;2022-12-07T06:14:44;22.33;;;17.25;;
51214;SDS011;63849;47.546;19.254;2022-12-07T06:17:10;28.75;;;19.83;;
51214;SDS011;63849;47.546;19.254;2022-12-07T06:19:37;21.75;;;18.08;;
51214;SDS011;63849;47.546;19.254;2022-12-07T06:22:03;26.25;;;19.77;;
51214;SDS011;63849;47.546;19.254;2022-12-07T06:24:30;32.78;;;23.85;;
51214;SDS011;63849;47.546;19.254;2022-12-07T06:26:56;32.85;;;25.30;;
51214;SDS011;63849;47.546;19.254;2022-12-07T06:29:22;32.28;;;24.95;;
51214;SDS011;63849;47.546;19.254;2022-12-07T06:31:48;30.85;;;22.45;;
51214;SDS011;63849;47.546;19.254;2022-12-07T06:34:15;32.78;;;25.88;;
51214;SDS011;63849;47.546;19.254;2022-12-07T06:36:42;31.63;;;26.23;;
51214;SDS011;63849;47.546;19.254;2022-12-07T06:39:08;36.90;;;25.38;;
51214;SDS011;63849;47.546;19.254;2022-12-07T06:41:35;34.92;;;26.48;;
51214;SDS011;63849;47.546;19.254;2022-12-07T06:44:02;34.80;;;26.35;;
51214;SDS011;63849;47.546;19.254;2022-12-07T06:46:28;31.77;;;25.08;;
51214;SDS011;63849;47.546;19.254;2022-12-07T06:48:57;30.38;;;24.05;;
51214;SDS011;63849;47.546;19.254;2022-12-07T06:51:23;28.85;;;22.67;;
51214;SDS011;63849;47.546;19.254;2022-12-07T06:53:49;26.98;;;22.55;;
51214;SDS011;63849;47.546;19.254;2022-12-07T06:56:14;25.42;;;19.40;;
51214;SDS011;63849;47.546;19.254;2022-12-07T06:58:40;25.00;;;20.13;;
51214;SDS011;63849;47.546;19.254;2022-12-07T07:01:10;26.45;;;19.77;;
51214;SDS011;63849;47.546;19.254;2022-12-07T07:03:36;23.30;;;19.77;;
51214;SDS011;63849;47.546;19.254;2022-12-07T07:06:03;25.33;;;20.00;;
51214;SDS011;63849;47.546;19.254;2022-12-07T07:08:29;26.77;;;20.33;;
51214;SDS011;63849;47.546;19.254;2022-12-07T07:10:55;27.33;;;21.33;;
51214;SDS011;63849;47.546;19.254;2022-12-07T07:13:21;30.58;;;24.42;;
51214;SDS011;63849;47.546;19.254;2022-12-07T07:15:47;32.42;;;25.00;;
51214;SDS011;63849;47.546;19.254;2022-12-07T07:18:13;32.40;;;24.92;;
51214;SDS011;63849;47.546;19.254;2022-12-07T07:20:39;31.30;;;25.45;;
51214;SDS011;63849;47.546;19.254;2022-12-07T07:23:05;38.55;;;26.75;;
51214;SDS011;63849;47.546;19.254;2022-12-07T07:25:31;35.42;;;27.30;;
51214;SDS011;63849;47.546;19.254;2022-12-07T07:27:57;34.97;;;26.67;;
51214;SDS011;63849;47.546;19.254;2022-12-07T07:30:23;34.22;;;26.75;;
51214;SDS011;63849;47.546;19.254;2022-12-07T07:32:49;39.85;;;27.65;;
51214;SDS011;63849;47.546;19.254;2022-12-07T07:35:15;34.53;;;27.42;;
51214;SDS011;63849;47.546;19.254;2022-12-07T07:37:41;39.25;;;27.38;;
51214;SDS011;63849;47.546;19.254;2022-12-07T07:40:07;35.30;;;26.10;;
51214;SDS011;63849;47.546;19.254;2022-12-07T07:42:34;35.92;;;26.77;;
51214;SDS011;63849;47.546;19.254;2022-12-07T07:45:01;36.78;;;29.17;;
51214;SDS011;63849;47.546;19.254;2022-12-07T07:47:26;36.95;;;28.40;;
51214;SDS011;63849;47.546;19.254;2022-12-07T07:49:55;35.78;;;27.38;;
51214;SDS011;63849;47.546;19.254;2022-12-07T07:52:21;31.30;;;25.13;;
51214;SDS011;63849;47.546;19.254;2022-12-07T07:54:46;36.55;;;26.55;;
51214;SDS011;63849;47.546;19.254;2022-12-07T07:57:13;33.80;;;26.50;;
51214;SDS011;63849;47.546;19.254;2022-12-07T07:59:40;33.80;;;25.98;;
51214;SDS011;63849;47.546;19.254;2022-12-07T08:02:08;32.58;;;24.55;;
51214;SDS011;63849;47.546;19.254;2022-12-07T08:04:39;31.73;;;24.85;;
51214;SDS011;63849;47.546;19.254;2022-12-07T08:07:08;39.80;;;31.67;;
51214;SDS011;63849;47.546;19.254;2022-12-07T08:09:34;34.58;;;27.75;;
51214;SDS011;63849;47.546;19.254;2022-12-07T08:12:00;35.05;;;27.92;;
51214;SDS011;63849;47.546;19.254;2022-12-07T08:14:26;39.13;;;30.25;;
51214;SDS011;63849;47.546;19.254;2022-12-07T08:16:53;42.38;;;30.70;;
51214;SDS011;63849;47.546;19.254;2022-12-07T08:19:19;44.78;;;32.38;;
51214;SDS011;63849;47.546;19.254;2022-12-07T08:21:45;48.72;;;34.30;;
51214;SDS011;63849;47.546;19.254;2022-12-07T08:24:11;41.00;;;31.55;;
51214;SDS011;63849;47.546;19.254;2022-12-07T08:26:37;41.10;;;29.42;;
51214;SDS011;63849;47.546;19.254;2022-12-07T08:29:03;40.05;;;29.38;;
51214;SDS011;63849;47.546;19.254;2022-12-07T08:31:29;40.33;;;28.40;;
51214;SDS011;63849;47.546;19.254;2022-12-07T08:33:55;39.67;;;30.63;;
51214;SDS011;63849;47.546;19.254;2022-12-07T08:36:22;44.30;;;31.48;;
51214;SDS011;63849;47.546;19.254;2022-12-07T08:38:48;44.47;;;31.27;;
51214;SDS011;63849;47.546;19.254;2022-12-07T08:41:15;43.13;;;31.55;;
51214;SDS011;63849;47.546;19.254;2022-12-07T08:43:41;44.42;;;31.63;;
51214;SDS011;63849;47.546;19.254;2022-12-07T08:46:08;39.95;;;31.15;;
51214;SDS011;63849;47.546;19.254;2022-12-07T08:48:50;42.83;;;32.30;;
51214;SDS011;63849;47.546;19.254;2022-12-07T08:51:21;44.15;;;31.17;;
51214;SDS011;63849;47.546;19.254;2022-12-07T08:53:47;45.53;;;33.80;;
51214;SDS011;63849;47.546;19.254;2022-12-07T08:56:15;43.92;;;32.92;;
51214;SDS011;63849;47.546;19.254;2022-12-07T08:58:41;42.33;;;32.92;;
51214;SDS011;63849;47.546;19.254;2022-12-07T09:01:07;44.40;;;32.47;;
51214;SDS011;63849;47.546;19.254;2022-12-07T09:03:33;48.58;;;34.85;;
51214;SDS011;63849;47.546;19.254;2022-12-07T09:06:00;40.55;;;33.00;;
51214;SDS011;63849;47.546;19.254;2022-12-07T09:08:27;47.58;;;33.72;;
51214;SDS011;63849;47.546;19.254;2022-12-07T09:10:57;45.75;;;33.95;;
51214;SDS011;63849;47.546;19.254;2022-12-07T09:13:23;43.83;;;33.58;;
51214;SDS011;63849;47.546;19.254;2022-12-07T09:15:49;42.88;;;34.45;;
51214;SDS011;63849;47.546;19.254;2022-12-07T09:18:14;43.97;;;32.08;;
51214;SDS011;63849;47.546;19.254;2022-12-07T09:20:40;59.45;;;36.47;;
51214;SDS011;63849;47.546;19.254;2022-12-07T09:23:06;46.42;;;32.40;;
51214;SDS011;63849;47.546;19.254;2022-12-07T09:25:32;43.40;;;31.05;;
51214;SDS011;63849;47.546;19.254;2022-12-07T09:27:59;33.22;;;27.50;;
51214;SDS011;63849;47.546;19.254;2022-12-07T09:30:26;31.85;;;25.58;;
51214;SDS011;63849;47.546;19.254;2022-12-07T09:32:52;30.75;;;25.50;;
51214;SDS011;63849;47.546;19.254;2022-12-07T09:35:19;29.63;;;24.65;;
51214;SDS011;63849;47.546;19.254;2022-12-07T09:37:45;31.95;;;24.73;;
51214;SDS011;63849;47.546;19.254;2022-12-07T09:40:12;29.70;;;24.35;;
51214;SDS011;63849;47.546;19.254;2022-12-07T09:42:40;29.85;;;24.75;;
51214;SDS011;63849;47.546;19.254;2022-12-07T09:45:12;25.38;;;21.73;;
51214;SDS011;63849;47.546;19.254;2022-12-07T09:47:41;25.45;;;22.08;;
51214;SDS011;63849;47.546;19.254;2022-12-07T09:50:29;26.85;;;22.35;;
51214;SDS011;63849;47.546;19.254;2022-12-07T09:52:55;32.10;;;25.25;;
51214;SDS011;63849;47.546;19.254;2022-12-07T09:55:35;32.90;;;25.63;;
51214;SDS011;63849;47.546;19.254;2022-12-07T09:58:02;33.70;;;26.73;;
51214;SDS011;63849;47.546;19.254;2022-12-07T10:00:29;42.65;;;28.75;;
51214;SDS011;63849;47.546;19.254;2022-12-07T10:02:55;37.90;;;28.23;;
51214;SDS011;63849;47.546;19.254;2022-12-07T10:05:27;27.95;;;22.25;;
51214;SDS011;63849;47.546;19.254;2022-12-07T10:08:03;46.90;;;31.73;;
51214;SDS011;63849;47.546;19.254;2022-12-07T10:10:32;46.60;;;29.15;;
51214;SDS011;63849;47.546;19.254;2022-12-07T10:13:00;91.70;;;46.63;;
51214;SDS011;63849;47.546;19.254;2022-12-07T10:15:44;90.57;;;49.53;;
51214;SDS011;63849;47.546;19.254;2022-12-07T10:20:47;66.93;;;39.58;;
51214;SDS011;63849;47.546;19.254;2022-12-07T10:23:14;27.83;;;22.05;;
51214;SDS011;63849;47.546;19.254;2022-12-07T10:25:41;32.60;;;25.63;;
51214;SDS011;63849;47.546;19.254;2022-12-07T10:30:33;21.48;;;18.88;;
51214;SDS011;63849;47.546;19.254;2022-12-07T10:36:23;15.60;;;13.93;;
51214;SDS011;63849;47.546;19.254;2022-12-07T10:42:00;18.20;;;14.70;;
51214;SDS011;63849;47.546;19.254;2022-12-07T10:44:32;17.00;;;14.57;;
51214;SDS011;63849;47.546;19.254;2022-12-07T10:52:50;15.45;;;13.82;;
51214;SDS011;63849;47.546;19.254;2022-12-07T10:55:33;14.80;;;11.48;;
51214;SDS011;63849;47.546;19.254;2022-12-07T11:00:58;14.43;;;12.93;;
51214;SDS011;63849;47.546;19.254;2022-12-07T11:17:09;15.65;;;14.05;;
51214;SDS011;63849;47.546;19.254;2022-12-07T11:19:55;13.35;;;11.85;;
51214;SDS011;63849;47.546;19.254;2022-12-07T11:23:21;14.43;;;11.90;;
51214;SDS011;63849;47.546;19.254;2022-12-07T11:33:33;15.63;;;14.07;;
51214;SDS011;63849;47.546;19.254;2022-12-07T11:38:57;34.47;;;28.80;;
51214;SDS011;63849;47.546;19.254;2022-12-07T11:41:32;19.25;;;16.05;;
51214;SDS011;63849;47.546;19.254;2022-12-07T11:44:06;12.77;;;11.40;;
51214;SDS011;63849;47.546;19.254;2022-12-07T11:46:46;15.52;;;13.45;;
51214;SDS011;63849;47.546;19.254;2022-12-07T11:49:39;18.58;;;16.77;;
51214;SDS011;63849;47.546;19.254;2022-12-07T11:52:26;13.10;;;11.70;;
51214;SDS011;63849;47.546;19.254;2022-12-07T11:55:31;12.45;;;11.07;;
51214;SDS011;63849;47.546;19.254;2022-12-07T12:03:34;17.15;;;14.52;;
51214;SDS011;63849;47.546;19.254;2022-12-07T12:06:05;16.33;;;13.77;;
51214;SDS011;63849;47.546;19.254;2022-12-07T12:08:43;14.82;;;12.60;;
51214;SDS011;63849;47.546;19.254;2022-12-07T12:16:48;12.88;;;10.02;;
51214;SDS011;63849;47.546;19.254;2022-12-07T12:19:37;14.18;;;11.23;;
51214;SDS011;63849;47.546;19.254;2022-12-07T12:24:49;16.10;;;14.52;;
51214;SDS011;63849;47.546;19.254;2022-12-07T12:27:21;22.33;;;20.02;;
51214;SDS011;63849;47.546;19.254;2022-12-07T12:29:56;13.13;;;11.82;;
51214;SDS011;63849;47.546;19.254;2022-12-07T12:38:20;12.68;;;11.38;;
51214;SDS011;63849;47.546;19.254;2022-12-07T12:41:01;12.45;;;10.75;;
51214;SDS011;63849;47.546;19.254;2022-12-07T12:43:50;14.90;;;12.75;;
51214;SDS011;63849;47.546;19.254;2022-12-07T12:48:56;11.45;;;10.25;;
51214;SDS011;63849;47.546;19.254;2022-12-07T12:51:43;10.60;;;8.43;;
51214;SDS011;63849;47.546;19.254;2022-12-07T12:54:29;10.98;;;8.90;;
51214;SDS011;63849;47.546;19.254;2022-12-07T12:57:13;11.45;;;9.13;;
51214;SDS011;63849;47.546;19.254;2022-12-07T12:59:57;18.67;;;16.77;;
51214;SDS011;63849;47.546;19.254;2022-12-07T13:15:39;12.35;;;9.38;;
51214;SDS011;63849;47.546;19.254;2022-12-07T13:23:27;27.83;;;22.15;;
51214;SDS011;63849;47.546;19.254;2022-12-07T13:33:46;17.13;;;15.38;;
51214;SDS011;63849;47.546;19.254;2022-12-07T13:36:16;17.27;;;12.55;;
51214;SDS011;63849;47.546;19.254;2022-12-07T13:39:11;25.00;;;14.40;;
51214;SDS011;63849;47.546;19.254;2022-12-07T13:41:44;22.40;;;19.30;;
51214;SDS011;63849;47.546;19.254;2022-12-07T13:44:16;18.17;;;16.38;;
51214;SDS011;63849;47.546;19.254;2022-12-07T13:46:50;21.70;;;16.13;;
51214;SDS011;63849;47.546;19.254;2022-12-07T13:49:55;13.82;;;11.77;;
51214;SDS011;63849;47.546;19.254;2022-12-07T13:52:26;13.45;;;11.48;;
51214;SDS011;63849;47.546;19.254;2022-12-07T13:55:00;20.70;;;14.48;;
51214;SDS011;63849;47.546;19.254;2022-12-07T13:57:38;15.88;;;13.63;;
51214;SDS011;63849;47.546;19.254;2022-12-07T14:00:05;14.10;;;11.15;;
51214;SDS011;63849;47.546;19.254;2022-12-07T14:02:54;14.70;;;12.20;;
51214;SDS011;63849;47.546;19.254;2022-12-07T14:05:46;14.23;;;12.18;;
51214;SDS011;63849;47.546;19.254;2022-12-07T14:08:29;15.88;;;12.38;;
51214;SDS011;63849;47.546;19.254;2022-12-07T14:10:56;17.52;;;14.38;;
51214;SDS011;63849;47.546;19.254;2022-12-07T14:15:52;13.90;;;12.35;;
51214;SDS011;63849;47.546;19.254;2022-12-07T14:18:36;17.17;;;13.15;;
51214;SDS011;63849;47.546;19.254;2022-12-07T14:23:32;14.13;;;12.68;;
51214;SDS011;63849;47.546;19.254;2022-12-07T14:26:14;13.30;;;11.50;;
51214;SDS011;63849;47.546;19.254;2022-12-07T14:28:44;14.77;;;11.55;;
51214;SDS011;63849;47.546;19.254;2022-12-07T14:31:14;16.38;;;13.88;;
51214;SDS011;63849;47.546;19.254;2022-12-07T14:33:41;14.80;;;11.95;;
51214;SDS011;63849;47.546;19.254;2022-12-07T14:36:11;16.00;;;13.05;;
51214;SDS011;63849;47.546;19.254;2022-12-07T14:38:38;17.02;;;12.07;;
51214;SDS011;63849;47.546;19.254;2022-12-07T14:41:04;14.18;;;12.68;;
51214;SDS011;63849;47.546;19.254;2022-12-07T14:43:56;16.67;;;13.70;;
51214;SDS011;63849;47.546;19.254;2022-12-07T14:46:21;22.00;;;16.13;;
51214;SDS011;63849;47.546;19.254;2022-12-07T14:48:47;18.40;;;14.80;;
51214;SDS011;63849;47.546;19.254;2022-12-07T14:51:13;22.40;;;19.48;;
51214;SDS011;63849;47.546;19.254;2022-12-07T14:53:40;20.52;;;17.60;;
51214;SDS011;63849;47.546;19.254;2022-12-07T14:56:09;35.05;;;22.02;;
51214;SDS011;63849;47.546;19.254;2022-12-07T14:58:35;26.98;;;20.55;;
51214;SDS011;63849;47.546;19.254;2022-12-07T15:01:01;27.60;;;21.65;;
51214;SDS011;63849;47.546;19.254;2022-12-07T15:03:27;28.40;;;23.98;;
51214;SDS011;63849;47.546;19.254;2022-12-07T15:05:52;25.98;;;21.05;;
51214;SDS011;63849;47.546;19.254;2022-12-07T15:08:18;24.00;;;19.27;;
51214;SDS011;63849;47.546;19.254;2022-12-07T15:10:44;22.83;;;18.13;;
51214;SDS011;63849;47.546;19.254;2022-12-07T15:13:09;24.73;;;19.25;;
51214;SDS011;63849;47.546;19.254;2022-12-07T15:15:55;21.88;;;17.20;;
51214;SDS011;63849;47.546;19.254;2022-12-07T15:18:22;19.52;;;16.75;;
51214;SDS011;63849;47.546;19.254;2022-12-07T15:20:52;31.42;;;18.75;;
51214;SDS011;63849;47.546;19.254;2022-12-07T15:23:18;24.33;;;19.15;;
51214;SDS011;63849;47.546;19.254;2022-12-07T15:25:45;23.58;;;18.90;;
51214;SDS011;63849;47.546;19.254;2022-12-07T15:28:12;28.52;;;20.55;;
51214;SDS011;63849;47.546;19.254;2022-12-07T15:30:39;24.73;;;21.73;;
51214;SDS011;63849;47.546;19.254;2022-12-07T15:33:05;27.23;;;21.67;;
51214;SDS011;63849;47.546;19.254;2022-12-07T15:35:31;29.90;;;22.45;;
51214;SDS011;63849;47.546;19.254;2022-12-07T15:37:57;30.35;;;24.63;;
51214;SDS011;63849;47.546;19.254;2022-12-07T15:40:22;51.25;;;35.70;;
51214;SDS011;63849;47.546;19.254;2022-12-07T15:42:48;41.08;;;30.60;;
51214;SDS011;63849;47.546;19.254;2022-12-07T15:45:14;34.65;;;26.55;;
51214;SDS011;63849;47.546;19.254;2022-12-07T15:47:40;29.80;;;22.90;;
51214;SDS011;63849;47.546;19.254;2022-12-07T15:50:09;26.83;;;21.63;;
51214;SDS011;63849;47.546;19.254;2022-12-07T15:52:37;28.42;;;21.70;;
51214;SDS011;63849;47.546;19.254;2022-12-07T15:55:03;28.35;;;21.83;;
51214;SDS011;63849;47.546;19.254;2022-12-07T15:57:30;31.45;;;22.45;;
51214;SDS011;63849;47.546;19.254;2022-12-07T15:59:57;32.25;;;23.77;;
51214;SDS011;63849;47.546;19.254;2022-12-07T16:02:23;31.55;;;23.80;;
51214;SDS011;63849;47.546;19.254;2022-12-07T16:04:49;33.03;;;25.33;;
51214;SDS011;63849;47.546;19.254;2022-12-07T16:07:15;34.53;;;25.98;;
51214;SDS011;63849;47.546;19.254;2022-12-07T16:09:43;32.67;;;25.80;;
51214;SDS011;63849;47.546;19.254;2022-12-07T16:12:09;31.33;;;25.20;;
51214;SDS011;63849;47.546;19.254;2022-12-07T16:14:35;33.55;;;25.70;;
51214;SDS011;63849;47.546;19.254;2022-12-07T16:17:02;27.48;;;23.92;;
51214;SDS011;63849;47.546;19.254;2022-12-07T16:19:29;30.55;;;23.92;;
51214;SDS011;63849;47.546;19.254;2022-12-07T16:21:55;28.88;;;23.73;;
51214;SDS011;63849;47.546;19.254;2022-12-07T16:24:21;27.08;;;22.08;;
51214;SDS011;63849;47.546;19.254;2022-12-07T16:26:47;29.02;;;23.73;;
51214;SDS011;63849;47.546;19.254;2022-12-07T16:29:13;30.15;;;23.95;;
51214;SDS011;63849;47.546;19.254;2022-12-07T16:31:39;33.97;;;26.48;;
51214;SDS011;63849;47.546;19.254;2022-12-07T16:34:05;30.98;;;25.17;;
51214;SDS011;63849;47.546;19.254;2022-12-07T16:36:31;32.65;;;23.27;;
51214;SDS011;63849;47.546;19.254;2022-12-07T16:38:58;26.45;;;19.48;;
51214;SDS011;63849;47.546;19.254;2022-12-07T16:41:24;24.02;;;19.15;;
51214;SDS011;63849;47.546;19.254;2022-12-07T16:43:50;22.33;;;17.77;;
51214;SDS011;63849;47.546;19.254;2022-12-07T16:46:16;28.48;;;20.98;;
51214;SDS011;63849;47.546;19.254;2022-12-07T16:48:42;32.70;;;23.65;;